Terminal Aerodrome Forecast
Issued by NWS

Home | Current Version | Previous Version | Text Only | Print | Product List | Glossary On
Versions: 1 2 3 4 5 6 7 8 9 10 11 12 13 14 15 16 17 18 19 20 21 22 23 24 25 26 27 28 29 30 31 32 33 34 35 36
000
FTUS43 KDTX 162320
TAFMBS
TAF
KMBS 162320Z 1700/1724 05005KT P6SM SKC
     FM170600 VRB03KT 3SM BR SCT008
     FM170800 00000KT 2SM BR BKN005
      TEMPO 1709/1713 1/2SM FG VV002
     FM171400 VRB03KT 3SM BR BKN008
     FM171600 06006KT P6SM SKC=

USA.gov is the U.S. government's official web portal to all federal, state and local government web resources and services.